Airport View

Enter AWOS ICAO identifier for current METAR.

ex. KFNL

KBBP 290355Z AUTO 00000KT 10SM OVC004 21/21 A2992 RMK AO2

29 Sep 2020 03:56

Frequency: 123.825

Phone: 843-479-5817

Other Area AWOS: KCQW - KUDG - KRCZ - KMEB

TAF KFLO 282326Z 2900/2924 14005KT 6SM BR VCSH BKN005 FM290300 15005KT 3SM BR VCSH BKN010 FM290900 00000KT 1 1/2SM BR BKN003 FM291300 18004KT 5SM BR BKN020 FM291700 20006KT 6SM -SHRA BR BKN030